sensor_id;sensor_type;location;lat;lon;timestamp;temperature;humidity
64501;DHT22;50874;24.150;-110.320;2024-01-30T00:00:24;24.60;99.90
64501;DHT22;50874;24.150;-110.320;2024-01-30T00:02:51;24.60;99.90
64501;DHT22;50874;24.150;-110.320;2024-01-30T00:05:17;24.60;99.90
64501;DHT22;50874;24.150;-110.320;2024-01-30T00:07:44;24.50;99.90
64501;DHT22;50874;24.150;-110.320;2024-01-30T00:10:10;24.60;99.90
64501;DHT22;50874;24.150;-110.320;2024-01-30T00:12:37;24.50;99.90
64501;DHT22;50874;24.150;-110.320;2024-01-30T00:15:04;24.50;99.90
64501;DHT22;50874;24.150;-110.320;2024-01-30T00:17:31;24.50;99.90
64501;DHT22;50874;24.150;-110.320;2024-01-30T00:19:57;24.40;99.90
64501;DHT22;50874;24.150;-110.320;2024-01-30T00:22:24;24.40;99.90
64501;DHT22;50874;24.150;-110.320;2024-01-30T00:24:50;24.40;99.90
64501;DHT22;50874;24.150;-110.320;2024-01-30T00:27:17;24.30;99.90
64501;DHT22;50874;24.150;-110.320;2024-01-30T00:29:43;24.10;99.90
64501;DHT22;50874;24.150;-110.320;2024-01-30T00:32:09;24.10;99.90
64501;DHT22;50874;24.150;-110.320;2024-01-30T00:34:36;24.10;99.90
64501;DHT22;50874;24.150;-110.320;2024-01-30T00:37:02;24.20;99.90
64501;DHT22;50874;24.150;-110.320;2024-01-30T00:39:29;24.40;99.90
64501;DHT22;50874;24.150;-110.320;2024-01-30T00:41:55;24.40;99.90
64501;DHT22;50874;24.150;-110.320;2024-01-30T00:44:22;24.60;99.90
64501;DHT22;50874;24.150;-110.320;2024-01-30T00:46:48;24.60;99.90
64501;DHT22;50874;24.150;-110.320;2024-01-30T00:49:15;24.60;99.90
64501;DHT22;50874;24.150;-110.320;2024-01-30T00:51:41;24.50;99.90
64501;DHT22;50874;24.150;-110.320;2024-01-30T00:54:08;24.50;99.90
64501;DHT22;50874;24.150;-110.320;2024-01-30T00:56:34;24.40;99.90
64501;DHT22;50874;24.150;-110.320;2024-01-30T00:59:01;24.50;99.90
64501;DHT22;50874;24.150;-110.320;2024-01-30T01:01:27;24.60;99.90
64501;DHT22;50874;24.150;-110.320;2024-01-30T01:03:54;24.50;99.90
64501;DHT22;50874;24.150;-110.320;2024-01-30T01:06:20;24.50;99.90
64501;DHT22;50874;24.150;-110.320;2024-01-30T01:08:47;24.50;99.90
64501;DHT22;50874;24.150;-110.320;2024-01-30T01:11:13;24.40;99.90
64501;DHT22;50874;24.150;-110.320;2024-01-30T01:13:40;24.40;99.90
64501;DHT22;50874;24.150;-110.320;2024-01-30T01:16:06;24.30;99.90
64501;DHT22;50874;24.150;-110.320;2024-01-30T01:18:33;24.20;99.90
64501;DHT22;50874;24.150;-110.320;2024-01-30T01:20:59;24.10;99.90
64501;DHT22;50874;24.150;-110.320;2024-01-30T01:23:26;24.10;99.90
64501;DHT22;50874;24.150;-110.320;2024-01-30T01:25:53;24.00;99.90
64501;DHT22;50874;24.150;-110.320;2024-01-30T01:28:19;24.00;99.90
64501;DHT22;50874;24.150;-110.320;2024-01-30T01:31:00;24.00;99.90
64501;DHT22;50874;24.150;-110.320;2024-01-30T01:33:34;23.90;99.90
64501;DHT22;50874;24.150;-110.320;2024-01-30T01:36:01;23.90;99.90
64501;DHT22;50874;24.150;-110.320;2024-01-30T01:38:28;23.80;99.90
64501;DHT22;50874;24.150;-110.320;2024-01-30T01:40:55;23.80;99.90
64501;DHT22;50874;24.150;-110.320;2024-01-30T01:43:21;23.80;99.90
64501;DHT22;50874;24.150;-110.320;2024-01-30T01:45:48;23.70;99.90
64501;DHT22;50874;24.150;-110.320;2024-01-30T01:48:14;23.70;99.90
64501;DHT22;50874;24.150;-110.320;2024-01-30T01:50:42;23.70;99.90
64501;DHT22;50874;24.150;-110.320;2024-01-30T01:53:09;23.60;99.90
64501;DHT22;50874;24.150;-110.320;2024-01-30T01:55:36;23.50;99.90
64501;DHT22;50874;24.150;-110.320;2024-01-30T01:58:03;23.40;99.90
64501;DHT22;50874;24.150;-110.320;2024-01-30T02:00:31;23.40;99.90
64501;DHT22;50874;24.150;-110.320;2024-01-30T02:02:57;23.40;99.90
64501;DHT22;50874;24.150;-110.320;2024-01-30T02:05:25;23.40;99.90
64501;DHT22;50874;24.150;-110.320;2024-01-30T02:07:52;23.40;99.90
64501;DHT22;50874;24.150;-110.320;2024-01-30T02:10:19;23.40;99.90
64501;DHT22;50874;24.150;-110.320;2024-01-30T02:12:45;23.40;99.90
64501;DHT22;50874;24.150;-110.320;2024-01-30T02:15:14;23.30;99.90
64501;DHT22;50874;24.150;-110.320;2024-01-30T02:17:40;23.30;99.90
64501;DHT22;50874;24.150;-110.320;2024-01-30T02:20:07;23.30;99.90
64501;DHT22;50874;24.150;-110.320;2024-01-30T02:22:35;23.20;99.90
64501;DHT22;50874;24.150;-110.320;2024-01-30T02:25:02;23.20;99.90
64501;DHT22;50874;24.150;-110.320;2024-01-30T02:27:29;23.20;99.90
64501;DHT22;50874;24.150;-110.320;2024-01-30T02:29:56;23.10;99.90
64501;DHT22;50874;24.150;-110.320;2024-01-30T02:32:22;23.00;99.90
64501;DHT22;50874;24.150;-110.320;2024-01-30T02:34:48;22.90;99.90
64501;DHT22;50874;24.150;-110.320;2024-01-30T02:37:16;23.00;99.90
64501;DHT22;50874;24.150;-110.320;2024-01-30T02:39:43;23.00;99.90
64501;DHT22;50874;24.150;-110.320;2024-01-30T02:42:09;22.90;99.90
64501;DHT22;50874;24.150;-110.320;2024-01-30T02:44:36;22.80;99.90
64501;DHT22;50874;24.150;-110.320;2024-01-30T02:47:02;22.60;99.90
64501;DHT22;50874;24.150;-110.320;2024-01-30T02:49:29;22.60;99.90
64501;DHT22;50874;24.150;-110.320;2024-01-30T02:51:55;22.50;99.90
64501;DHT22;50874;24.150;-110.320;2024-01-30T02:54:22;22.60;99.90
64501;DHT22;50874;24.150;-110.320;2024-01-30T02:56:49;22.60;99.90
64501;DHT22;50874;24.150;-110.320;2024-01-30T02:59:15;22.70;99.90
64501;DHT22;50874;24.150;-110.320;2024-01-30T03:01:45;22.60;99.90
64501;DHT22;50874;24.150;-110.320;2024-01-30T03:04:12;22.60;99.90
64501;DHT22;50874;24.150;-110.320;2024-01-30T03:06:39;22.50;99.90
64501;DHT22;50874;24.150;-110.320;2024-01-30T03:09:05;22.50;99.90
64501;DHT22;50874;24.150;-110.320;2024-01-30T03:11:32;22.60;99.90
64501;DHT22;50874;24.150;-110.320;2024-01-30T03:13:58;22.60;99.90
64501;DHT22;50874;24.150;-110.320;2024-01-30T03:16:25;22.70;99.90
64501;DHT22;50874;24.150;-110.320;2024-01-30T03:18:52;22.70;99.90
64501;DHT22;50874;24.150;-110.320;2024-01-30T03:21:18;22.80;99.90
64501;DHT22;50874;24.150;-110.320;2024-01-30T03:23:45;22.80;99.90
64501;DHT22;50874;24.150;-110.320;2024-01-30T03:26:11;22.80;99.90
64501;DHT22;50874;24.150;-110.320;2024-01-30T03:28:38;22.90;99.90
64501;DHT22;50874;24.150;-110.320;2024-01-30T03:31:05;23.00;99.90
64501;DHT22;50874;24.150;-110.320;2024-01-30T03:33:31;23.00;99.90
64501;DHT22;50874;24.150;-110.320;2024-01-30T03:35:58;23.10;99.90
64501;DHT22;50874;24.150;-110.320;2024-01-30T03:38:28;23.10;99.90
64501;DHT22;50874;24.150;-110.320;2024-01-30T03:40:55;23.10;99.90
64501;DHT22;50874;24.150;-110.320;2024-01-30T03:43:21;23.10;99.90
64501;DHT22;50874;24.150;-110.320;2024-01-30T03:45:48;23.10;99.90
64501;DHT22;50874;24.150;-110.320;2024-01-30T03:48:14;23.00;99.90
64501;DHT22;50874;24.150;-110.320;2024-01-30T03:50:40;22.90;99.90
64501;DHT22;50874;24.150;-110.320;2024-01-30T03:53:07;22.90;99.90
64501;DHT22;50874;24.150;-110.320;2024-01-30T03:55:33;22.90;99.90
64501;DHT22;50874;24.150;-110.320;2024-01-30T03:58:00;22.90;99.90
64501;DHT22;50874;24.150;-110.320;2024-01-30T04:00:27;22.90;99.90
64501;DHT22;50874;24.150;-110.320;2024-01-30T04:02:53;22.90;99.90
64501;DHT22;50874;24.150;-110.320;2024-01-30T04:05:20;23.00;99.90
64501;DHT22;50874;24.150;-110.320;2024-01-30T04:07:46;23.00;99.90
64501;DHT22;50874;24.150;-110.320;2024-01-30T04:10:13;23.10;99.90
64501;DHT22;50874;24.150;-110.320;2024-01-30T04:12:39;23.10;99.90
64501;DHT22;50874;24.150;-110.320;2024-01-30T04:15:06;23.10;99.90
64501;DHT22;50874;24.150;-110.320;2024-01-30T04:17:33;23.10;99.90
64501;DHT22;50874;24.150;-110.320;2024-01-30T04:20:00;23.20;99.90
64501;DHT22;50874;24.150;-110.320;2024-01-30T04:22:26;23.20;99.90
64501;DHT22;50874;24.150;-110.320;2024-01-30T04:24:53;23.20;99.90
64501;DHT22;50874;24.150;-110.320;2024-01-30T04:27:19;23.30;99.90
64501;DHT22;50874;24.150;-110.320;2024-01-30T04:32:15;23.20;99.90
64501;DHT22;50874;24.150;-110.320;2024-01-30T04:34:41;23.20;99.70
64501;DHT22;50874;24.150;-110.320;2024-01-30T04:37:08;23.20;99.20
64501;DHT22;50874;24.150;-110.320;2024-01-30T04:39:34;23.20;99.10
64501;DHT22;50874;24.150;-110.320;2024-01-30T04:42:01;23.10;99.00
64501;DHT22;50874;24.150;-110.320;2024-01-30T04:44:27;23.00;98.90
64501;DHT22;50874;24.150;-110.320;2024-01-30T04:46:54;23.00;99.10
64501;DHT22;50874;24.150;-110.320;2024-01-30T04:49:24;22.90;99.10
64501;DHT22;50874;24.150;-110.320;2024-01-30T04:51:51;22.80;98.80
64501;DHT22;50874;24.150;-110.320;2024-01-30T04:54:17;22.80;98.20
64501;DHT22;50874;24.150;-110.320;2024-01-30T04:56:44;22.90;97.70
64501;DHT22;50874;24.150;-110.320;2024-01-30T04:59:11;23.00;97.50
64501;DHT22;50874;24.150;-110.320;2024-01-30T05:01:37;23.00;97.70
64501;DHT22;50874;24.150;-110.320;2024-01-30T05:04:06;23.00;98.10
64501;DHT22;50874;24.150;-110.320;2024-01-30T05:06:33;23.00;98.20
64501;DHT22;50874;24.150;-110.320;2024-01-30T05:09:00;23.00;98.50
64501;DHT22;50874;24.150;-110.320;2024-01-30T05:11:26;23.00;98.60
64501;DHT22;50874;24.150;-110.320;2024-01-30T05:13:53;23.00;98.40
64501;DHT22;50874;24.150;-110.320;2024-01-30T05:16:20;23.00;98.40
64501;DHT22;50874;24.150;-110.320;2024-01-30T05:18:46;23.00;98.50
64501;DHT22;50874;24.150;-110.320;2024-01-30T05:21:12;23.00;98.90
64501;DHT22;50874;24.150;-110.320;2024-01-30T05:23:39;23.00;99.20
64501;DHT22;50874;24.150;-110.320;2024-01-30T05:26:08;22.90;99.70
64501;DHT22;50874;24.150;-110.320;2024-01-30T05:28:35;22.90;99.90
64501;DHT22;50874;24.150;-110.320;2024-01-30T05:31:02;22.80;99.90
64501;DHT22;50874;24.150;-110.320;2024-01-30T05:33:28;22.70;99.90
64501;DHT22;50874;24.150;-110.320;2024-01-30T05:35:55;22.60;99.90
64501;DHT22;50874;24.150;-110.320;2024-01-30T05:38:21;22.60;99.90
64501;DHT22;50874;24.150;-110.320;2024-01-30T05:40:48;22.50;99.90
64501;DHT22;50874;24.150;-110.320;2024-01-30T05:43:15;22.50;99.70
64501;DHT22;50874;24.150;-110.320;2024-01-30T05:45:41;22.50;99.20
64501;DHT22;50874;24.150;-110.320;2024-01-30T05:48:08;22.50;98.90
64501;DHT22;50874;24.150;-110.320;2024-01-30T05:50:34;22.50;99.00
64501;DHT22;50874;24.150;-110.320;2024-01-30T05:53:01;22.50;99.00
64501;DHT22;50874;24.150;-110.320;2024-01-30T05:55:27;22.50;99.00
64501;DHT22;50874;24.150;-110.320;2024-01-30T05:57:53;22.70;98.50
64501;DHT22;50874;24.150;-110.320;2024-01-30T06:00:20;22.60;98.30
64501;DHT22;50874;24.150;-110.320;2024-01-30T06:02:47;22.70;98.40
64501;DHT22;50874;24.150;-110.320;2024-01-30T06:05:13;22.70;98.20
64501;DHT22;50874;24.150;-110.320;2024-01-30T06:07:40;22.70;98.40
64501;DHT22;50874;24.150;-110.320;2024-01-30T06:10:08;22.70;98.60
64501;DHT22;50874;24.150;-110.320;2024-01-30T06:12:35;22.70;98.70
64501;DHT22;50874;24.150;-110.320;2024-01-30T06:15:02;22.60;98.80
64501;DHT22;50874;24.150;-110.320;2024-01-30T06:17:29;22.60;99.40
64501;DHT22;50874;24.150;-110.320;2024-01-30T06:19:55;22.50;99.90
64501;DHT22;50874;24.150;-110.320;2024-01-30T06:22:22;22.50;99.90
64501;DHT22;50874;24.150;-110.320;2024-01-30T06:24:48;22.50;99.90
64501;DHT22;50874;24.150;-110.320;2024-01-30T06:27:15;22.50;99.90
64501;DHT22;50874;24.150;-110.320;2024-01-30T06:29:43;22.40;99.90
64501;DHT22;50874;24.150;-110.320;2024-01-30T06:32:10;22.30;99.90
64501;DHT22;50874;24.150;-110.320;2024-01-30T06:34:36;22.20;99.90
64501;DHT22;50874;24.150;-110.320;2024-01-30T06:37:04;22.10;99.90
64501;DHT22;50874;24.150;-110.320;2024-01-30T06:39:31;22.10;99.90
64501;DHT22;50874;24.150;-110.320;2024-01-30T06:41:57;22.10;99.90
64501;DHT22;50874;24.150;-110.320;2024-01-30T06:44:24;22.10;99.90
64501;DHT22;50874;24.150;-110.320;2024-01-30T06:46:50;22.10;99.90
64501;DHT22;50874;24.150;-110.320;2024-01-30T06:49:17;22.00;99.90
64501;DHT22;50874;24.150;-110.320;2024-01-30T06:51:43;21.90;99.90
64501;DHT22;50874;24.150;-110.320;2024-01-30T06:54:10;21.90;99.90
64501;DHT22;50874;24.150;-110.320;2024-01-30T06:56:39;22.00;99.90
64501;DHT22;50874;24.150;-110.320;2024-01-30T06:59:05;22.00;99.90
64501;DHT22;50874;24.150;-110.320;2024-01-30T07:01:32;22.00;99.90
64501;DHT22;50874;24.150;-110.320;2024-01-30T07:03:58;22.10;99.90
64501;DHT22;50874;24.150;-110.320;2024-01-30T07:06:25;22.10;99.90
64501;DHT22;50874;24.150;-110.320;2024-01-30T07:08:51;22.20;99.90
64501;DHT22;50874;24.150;-110.320;2024-01-30T07:11:21;22.20;99.90
64501;DHT22;50874;24.150;-110.320;2024-01-30T07:13:51;22.20;99.90
64501;DHT22;50874;24.150;-110.320;2024-01-30T07:16:17;22.30;99.90
64501;DHT22;50874;24.150;-110.320;2024-01-30T07:18:44;22.40;99.90
64501;DHT22;50874;24.150;-110.320;2024-01-30T07:21:11;22.40;99.90
64501;DHT22;50874;24.150;-110.320;2024-01-30T07:23:37;22.40;99.90
64501;DHT22;50874;24.150;-110.320;2024-01-30T07:26:08;22.50;99.90
64501;DHT22;50874;24.150;-110.320;2024-01-30T07:28:35;22.50;99.90
64501;DHT22;50874;24.150;-110.320;2024-01-30T07:31:02;22.50;99.90
64501;DHT22;50874;24.150;-110.320;2024-01-30T07:33:29;22.50;99.90
64501;DHT22;50874;24.150;-110.320;2024-01-30T07:35:55;22.50;99.90
64501;DHT22;50874;24.150;-110.320;2024-01-30T07:38:22;22.60;99.90
64501;DHT22;50874;24.150;-110.320;2024-01-30T07:40:49;22.60;99.90
64501;DHT22;50874;24.150;-110.320;2024-01-30T07:43:15;22.60;99.90
64501;DHT22;50874;24.150;-110.320;2024-01-30T07:45:42;22.60;99.90
64501;DHT22;50874;24.150;-110.320;2024-01-30T07:48:08;22.60;99.90
64501;DHT22;50874;24.150;-110.320;2024-01-30T07:50:35;22.60;99.60
64501;DHT22;50874;24.150;-110.320;2024-01-30T07:53:02;22.60;99.90
64501;DHT22;50874;24.150;-110.320;2024-01-30T07:55:29;22.60;99.70
64501;DHT22;50874;24.150;-110.320;2024-01-30T07:57:57;22.70;99.70
64501;DHT22;50874;24.150;-110.320;2024-01-30T08:00:25;22.70;99.20
64501;DHT22;50874;24.150;-110.320;2024-01-30T08:02:51;22.80;99.10
64501;DHT22;50874;24.150;-110.320;2024-01-30T08:05:20;22.80;99.50
64501;DHT22;50874;24.150;-110.320;2024-01-30T08:07:49;22.70;99.30
64501;DHT22;50874;24.150;-110.320;2024-01-30T08:10:15;22.60;99.50
64501;DHT22;50874;24.150;-110.320;2024-01-30T08:12:44;22.50;99.50
64501;DHT22;50874;24.150;-110.320;2024-01-30T08:15:12;22.40;99.60
64501;DHT22;50874;24.150;-110.320;2024-01-30T08:17:39;22.40;99.90
64501;DHT22;50874;24.150;-110.320;2024-01-30T08:20:06;22.30;99.90
64501;DHT22;50874;24.150;-110.320;2024-01-30T08:22:34;22.20;99.90
64501;DHT22;50874;24.150;-110.320;2024-01-30T08:25:00;22.20;99.90
64501;DHT22;50874;24.150;-110.320;2024-01-30T08:27:27;22.10;99.90
64501;DHT22;50874;24.150;-110.320;2024-01-30T08:29:54;22.10;99.90
64501;DHT22;50874;24.150;-110.320;2024-01-30T08:32:20;22.10;99.90
64501;DHT22;50874;24.150;-110.320;2024-01-30T08:34:47;22.10;99.90
64501;DHT22;50874;24.150;-110.320;2024-01-30T08:37:13;22.00;99.90
64501;DHT22;50874;24.150;-110.320;2024-01-30T08:39:43;22.00;99.90
64501;DHT22;50874;24.150;-110.320;2024-01-30T08:42:09;22.10;99.90
64501;DHT22;50874;24.150;-110.320;2024-01-30T08:44:36;22.30;99.80
64501;DHT22;50874;24.150;-110.320;2024-01-30T08:47:02;22.50;99.70
64501;DHT22;50874;24.150;-110.320;2024-01-30T08:49:29;22.70;99.50
64501;DHT22;50874;24.150;-110.320;2024-01-30T08:51:55;22.80;99.70
64501;DHT22;50874;24.150;-110.320;2024-01-30T08:54:23;22.80;99.80
64501;DHT22;50874;24.150;-110.320;2024-01-30T08:56:50;22.70;99.80
64501;DHT22;50874;24.150;-110.320;2024-01-30T08:59:18;22.70;99.90
64501;DHT22;50874;24.150;-110.320;2024-01-30T09:01:44;22.70;99.90
64501;DHT22;50874;24.150;-110.320;2024-01-30T09:04:12;22.60;99.90
64501;DHT22;50874;24.150;-110.320;2024-01-30T09:06:39;22.60;99.70
64501;DHT22;50874;24.150;-110.320;2024-01-30T09:09:05;22.60;99.30
64501;DHT22;50874;24.150;-110.320;2024-01-30T09:11:32;22.60;99.20
64501;DHT22;50874;24.150;-110.320;2024-01-30T09:13:58;22.60;99.30
64501;DHT22;50874;24.150;-110.320;2024-01-30T09:16:25;22.60;99.20
64501;DHT22;50874;24.150;-110.320;2024-01-30T09:18:51;22.60;99.20
64501;DHT22;50874;24.150;-110.320;2024-01-30T09:21:18;22.50;99.80
64501;DHT22;50874;24.150;-110.320;2024-01-30T09:23:44;22.40;99.90
64501;DHT22;50874;24.150;-110.320;2024-01-30T09:26:11;22.30;99.90
64501;DHT22;50874;24.150;-110.320;2024-01-30T09:28:38;22.20;99.90
64501;DHT22;50874;24.150;-110.320;2024-01-30T09:31:10;22.10;99.90
64501;DHT22;50874;24.150;-110.320;2024-01-30T09:33:36;22.10;99.90
64501;DHT22;50874;24.150;-110.320;2024-01-30T09:36:03;22.10;99.90
64501;DHT22;50874;24.150;-110.320;2024-01-30T09:38:29;22.10;99.90
64501;DHT22;50874;24.150;-110.320;2024-01-30T09:40:56;22.00;99.90
64501;DHT22;50874;24.150;-110.320;2024-01-30T09:43:24;21.90;99.90
64501;DHT22;50874;24.150;-110.320;2024-01-30T09:45:54;21.80;99.90
64501;DHT22;50874;24.150;-110.320;2024-01-30T09:48:22;21.80;99.90
64501;DHT22;50874;24.150;-110.320;2024-01-30T09:50:49;21.80;99.90
64501;DHT22;50874;24.150;-110.320;2024-01-30T09:53:16;21.80;99.90
64501;DHT22;50874;24.150;-110.320;2024-01-30T09:55:44;21.90;99.90
64501;DHT22;50874;24.150;-110.320;2024-01-30T09:58:12;22.00;99.90
64501;DHT22;50874;24.150;-110.320;2024-01-30T10:00:39;22.20;99.90
64501;DHT22;50874;24.150;-110.320;2024-01-30T10:03:05;22.20;99.90
64501;DHT22;50874;24.150;-110.320;2024-01-30T10:05:32;22.20;99.90
64501;DHT22;50874;24.150;-110.320;2024-01-30T10:08:06;22.20;99.90
64501;DHT22;50874;24.150;-110.320;2024-01-30T10:10:36;22.20;99.90
64501;DHT22;50874;24.150;-110.320;2024-01-30T10:13:03;22.40;99.90
64501;DHT22;50874;24.150;-110.320;2024-01-30T10:15:29;22.60;99.90
64501;DHT22;50874;24.150;-110.320;2024-01-30T10:17:56;22.60;99.90
64501;DHT22;50874;24.150;-110.320;2024-01-30T10:20:25;22.50;99.90
64501;DHT22;50874;24.150;-110.320;2024-01-30T10:22:51;22.50;99.90
64501;DHT22;50874;24.150;-110.320;2024-01-30T10:25:18;22.50;99.90
64501;DHT22;50874;24.150;-110.320;2024-01-30T10:27:45;22.70;99.90
64501;DHT22;50874;24.150;-110.320;2024-01-30T10:30:12;22.80;99.90
64501;DHT22;50874;24.150;-110.320;2024-01-30T10:32:39;22.80;99.90
64501;DHT22;50874;24.150;-110.320;2024-01-30T10:35:05;22.80;99.90
64501;DHT22;50874;24.150;-110.320;2024-01-30T10:37:32;22.70;99.90
64501;DHT22;50874;24.150;-110.320;2024-01-30T10:40:02;22.60;99.90
64501;DHT22;50874;24.150;-110.320;2024-01-30T10:42:32;22.60;99.90
64501;DHT22;50874;24.150;-110.320;2024-01-30T10:45:10;22.50;99.90
64501;DHT22;50874;24.150;-110.320;2024-01-30T10:47:49;22.50;99.90
64501;DHT22;50874;24.150;-110.320;2024-01-30T10:50:16;22.50;99.90
64501;DHT22;50874;24.150;-110.320;2024-01-30T10:52:43;22.40;99.90
64501;DHT22;50874;24.150;-110.320;2024-01-30T10:55:10;22.40;99.90
64501;DHT22;50874;24.150;-110.320;2024-01-30T10:57:37;22.30;99.90
64501;DHT22;50874;24.150;-110.320;2024-01-30T11:00:08;22.30;99.90
64501;DHT22;50874;24.150;-110.320;2024-01-30T11:02:41;22.30;99.90
64501;DHT22;50874;24.150;-110.320;2024-01-30T11:05:08;22.30;99.90
64501;DHT22;50874;24.150;-110.320;2024-01-30T11:07:35;22.40;99.90
64501;DHT22;50874;24.150;-110.320;2024-01-30T11:10:03;22.50;99.90
64501;DHT22;50874;24.150;-110.320;2024-01-30T11:12:31;22.50;99.90
64501;DHT22;50874;24.150;-110.320;2024-01-30T11:15:15;22.50;99.90
64501;DHT22;50874;24.150;-110.320;2024-01-30T11:20:22;22.50;99.90
64501;DHT22;50874;24.150;-110.320;2024-01-30T11:22:51;22.50;99.90
64501;DHT22;50874;24.150;-110.320;2024-01-30T11:25:20;22.50;99.90
64501;DHT22;50874;24.150;-110.320;2024-01-30T11:27:50;22.50;99.90
64501;DHT22;50874;24.150;-110.320;2024-01-30T11:30:26;22.60;99.90
64501;DHT22;50874;24.150;-110.320;2024-01-30T11:33:07;22.50;99.90
64501;DHT22;50874;24.150;-110.320;2024-01-30T11:35:38;22.60;99.90
64501;DHT22;50874;24.150;-110.320;2024-01-30T11:38:09;22.60;99.90
64501;DHT22;50874;24.150;-110.320;2024-01-30T11:40:38;22.50;99.90
64501;DHT22;50874;24.150;-110.320;2024-01-30T11:43:06;22.60;99.90
64501;DHT22;50874;24.150;-110.320;2024-01-30T11:45:34;22.60;99.90
64501;DHT22;50874;24.150;-110.320;2024-01-30T11:48:01;22.70;99.90
64501;DHT22;50874;24.150;-110.320;2024-01-30T11:50:30;22.70;99.90
64501;DHT22;50874;24.150;-110.320;2024-01-30T11:52:57;22.80;99.90
64501;DHT22;50874;24.150;-110.320;2024-01-30T11:55:24;22.80;99.90
64501;DHT22;50874;24.150;-110.320;2024-01-30T11:57:50;22.90;99.90
64501;DHT22;50874;24.150;-110.320;2024-01-30T12:00:18;22.90;99.90
64501;DHT22;50874;24.150;-110.320;2024-01-30T12:02:53;22.90;99.90
64501;DHT22;50874;24.150;-110.320;2024-01-30T12:05:23;22.90;99.90
64501;DHT22;50874;24.150;-110.320;2024-01-30T12:07:50;22.90;99.90
64501;DHT22;50874;24.150;-110.320;2024-01-30T12:10:17;22.90;99.90
64501;DHT22;50874;24.150;-110.320;2024-01-30T12:12:47;22.90;99.90
64501;DHT22;50874;24.150;-110.320;2024-01-30T12:15:14;22.90;99.90
64501;DHT22;50874;24.150;-110.320;2024-01-30T12:17:41;22.80;99.90
64501;DHT22;50874;24.150;-110.320;2024-01-30T12:20:10;22.70;99.90
64501;DHT22;50874;24.150;-110.320;2024-01-30T12:22:40;22.70;99.90
64501;DHT22;50874;24.150;-110.320;2024-01-30T12:25:11;22.70;99.90
64501;DHT22;50874;24.150;-110.320;2024-01-30T12:27:39;22.80;99.90
64501;DHT22;50874;24.150;-110.320;2024-01-30T12:30:09;22.80;99.90
64501;DHT22;50874;24.150;-110.320;2024-01-30T12:32:44;22.80;99.90
64501;DHT22;50874;24.150;-110.320;2024-01-30T12:35:15;22.80;99.90
64501;DHT22;50874;24.150;-110.320;2024-01-30T12:37:43;22.70;99.90
64501;DHT22;50874;24.150;-110.320;2024-01-30T12:40:11;22.80;99.90
64501;DHT22;50874;24.150;-110.320;2024-01-30T12:42:39;22.80;99.90
64501;DHT22;50874;24.150;-110.320;2024-01-30T12:45:06;22.90;99.90
64501;DHT22;50874;24.150;-110.320;2024-01-30T12:47:32;22.90;99.90
64501;DHT22;50874;24.150;-110.320;2024-01-30T12:49:59;22.80;99.90
64501;DHT22;50874;24.150;-110.320;2024-01-30T12:52:26;22.70;99.90
64501;DHT22;50874;24.150;-110.320;2024-01-30T12:54:52;22.50;99.90
64501;DHT22;50874;24.150;-110.320;2024-01-30T12:57:19;22.20;99.90
64501;DHT22;50874;24.150;-110.320;2024-01-30T12:59:46;21.80;99.90
64501;DHT22;50874;24.150;-110.320;2024-01-30T13:02:13;21.50;99.90
64501;DHT22;50874;24.150;-110.320;2024-01-30T13:04:41;21.20;99.90
64501;DHT22;50874;24.150;-110.320;2024-01-30T13:07:07;20.90;99.90
64501;DHT22;50874;24.150;-110.320;2024-01-30T13:09:34;20.70;99.90
64501;DHT22;50874;24.150;-110.320;2024-01-30T13:12:00;20.50;99.90
64501;DHT22;50874;24.150;-110.320;2024-01-30T13:14:27;20.30;99.90
64501;DHT22;50874;24.150;-110.320;2024-01-30T13:16:53;20.20;99.90
64501;DHT22;50874;24.150;-110.320;2024-01-30T13:19:20;20.10;99.90
64501;DHT22;50874;24.150;-110.320;2024-01-30T13:21:46;20.00;99.90
64501;DHT22;50874;24.150;-110.320;2024-01-30T13:24:14;19.90;99.90
64501;DHT22;50874;24.150;-110.320;2024-01-30T13:26:42;19.80;99.90
64501;DHT22;50874;24.150;-110.320;2024-01-30T13:29:08;19.80;99.90
64501;DHT22;50874;24.150;-110.320;2024-01-30T13:34:56;19.70;99.90
64501;DHT22;50874;24.150;-110.320;2024-01-30T13:37:23;19.70;99.90
64501;DHT22;50874;24.150;-110.320;2024-01-30T13:39:49;19.70;99.90
64501;DHT22;50874;24.150;-110.320;2024-01-30T13:42:16;19.70;99.90
64501;DHT22;50874;24.150;-110.320;2024-01-30T13:44:43;19.60;99.90
64501;DHT22;50874;24.150;-110.320;2024-01-30T13:47:10;19.60;99.90
64501;DHT22;50874;24.150;-110.320;2024-01-30T13:49:36;19.60;99.90
64501;DHT22;50874;24.150;-110.320;2024-01-30T13:52:03;19.60;99.90
64501;DHT22;50874;24.150;-110.320;2024-01-30T13:54:29;19.50;99.90
64501;DHT22;50874;24.150;-110.320;2024-01-30T13:56:57;19.50;99.90
64501;DHT22;50874;24.150;-110.320;2024-01-30T13:59:25;19.50;99.90
64501;DHT22;50874;24.150;-110.320;2024-01-30T14:01:52;19.50;99.90
64501;DHT22;50874;24.150;-110.320;2024-01-30T14:04:18;19.50;99.90
64501;DHT22;50874;24.150;-110.320;2024-01-30T14:06:45;19.40;99.90
64501;DHT22;50874;24.150;-110.320;2024-01-30T14:09:11;19.30;99.90
64501;DHT22;50874;24.150;-110.320;2024-01-30T14:11:41;19.30;99.90
64501;DHT22;50874;24.150;-110.320;2024-01-30T14:14:09;19.10;99.90
64501;DHT22;50874;24.150;-110.320;2024-01-30T14:16:35;19.10;99.90
64501;DHT22;50874;24.150;-110.320;2024-01-30T14:19:02;19.10;99.90
64501;DHT22;50874;24.150;-110.320;2024-01-30T14:21:28;19.10;99.90
64501;DHT22;50874;24.150;-110.320;2024-01-30T14:23:55;19.10;99.90
64501;DHT22;50874;24.150;-110.320;2024-01-30T14:26:21;19.20;99.90
64501;DHT22;50874;24.150;-110.320;2024-01-30T14:28:48;19.30;99.90
64501;DHT22;50874;24.150;-110.320;2024-01-30T15:23:36;20.80;99.90
64501;DHT22;50874;24.150;-110.320;2024-01-30T15:26:02;20.80;99.90
64501;DHT22;50874;24.150;-110.320;2024-01-30T15:28:39;20.80;99.90
64501;DHT22;50874;24.150;-110.320;2024-01-30T15:31:06;20.70;99.90
64501;DHT22;50874;24.150;-110.320;2024-01-30T15:33:36;20.70;99.90
64501;DHT22;50874;24.150;-110.320;2024-01-30T15:36:03;20.70;99.90
64501;DHT22;50874;24.150;-110.320;2024-01-30T15:38:29;20.70;99.90
64501;DHT22;50874;24.150;-110.320;2024-01-30T15:40:56;20.60;99.90
64501;DHT22;50874;24.150;-110.320;2024-01-30T15:43:23;20.60;99.90
64501;DHT22;50874;24.150;-110.320;2024-01-30T15:45:50;20.60;99.90
64501;DHT22;50874;24.150;-110.320;2024-01-30T15:48:18;20.60;99.90